createdAt,value
2022-08-30T00:00:40.973Z,101854.28
2022-08-30T00:03:11.713Z,101857.41
2022-08-30T00:05:41.850Z,101854.00
2022-08-30T00:08:11.664Z,101861.84
2022-08-30T00:10:41.381Z,101855.72
2022-08-30T00:13:12.113Z,101861.84
2022-08-30T00:15:40.409Z,101857.72
2022-08-30T00:18:09.069Z,101861.72
2022-08-30T00:20:38.005Z,101865.69
2022-08-30T00:23:07.658Z,101864.97
2022-08-30T00:25:35.764Z,101856.00
2022-08-30T00:28:04.242Z,101867.56
2022-08-30T00:30:32.477Z,101868.56
2022-08-30T00:33:00.487Z,101874.13
2022-08-30T00:35:28.636Z,101877.56
2022-08-30T00:37:56.608Z,101870.84
2022-08-30T00:40:28.531Z,101876.13
2022-08-30T00:42:59.658Z,101873.97
2022-08-30T00:45:32.984Z,101860.72
2022-08-30T00:48:01.760Z,101869.69
2022-08-30T00:50:32.341Z,101865.41
2022-08-30T00:53:03.156Z,101863.16
2022-08-30T00:55:33.236Z,101864.28
2022-08-30T00:58:06.830Z,101863.56
2022-08-30T01:00:35.283Z,101876.81
2022-08-30T01:03:03.705Z,101880.38
2022-08-30T01:05:32.031Z,101876.53
2022-08-30T01:07:59.991Z,101883.94
2022-08-30T01:10:27.887Z,101887.78
2022-08-30T01:12:57.275Z,101879.38
2022-08-30T01:15:25.819Z,101878.50
2022-08-30T01:17:56.483Z,101883.50
2022-08-30T01:20:31.072Z,101882.06
2022-08-30T01:23:14.930Z,101889.66
2022-08-30T01:25:46.130Z,101882.81
2022-08-30T01:28:17.024Z,101889.50
2022-08-30T01:30:45.271Z,101879.81
2022-08-30T01:33:13.579Z,101885.38
2022-08-30T01:35:48.804Z,101883.53
2022-08-30T01:38:19.538Z,101887.38
2022-08-30T01:40:48.527Z,101888.81
2022-08-30T01:43:18.044Z,101891.78
2022-08-30T01:45:46.097Z,101887.09
2022-08-30T01:48:14.312Z,101886.50
2022-08-30T01:50:44.845Z,101883.94
2022-08-30T01:53:13.417Z,101877.38
2022-08-30T01:55:43.117Z,101875.94
2022-08-30T01:58:11.796Z,101873.81
2022-08-30T02:00:40.437Z,101876.81
2022-08-30T02:03:08.618Z,101878.53
2022-08-30T02:05:37.036Z,101884.25
2022-08-30T02:08:05.233Z,101872.69
2022-08-30T02:10:33.534Z,101867.56
2022-08-30T02:13:03.197Z,101880.09
2022-08-30T02:15:31.425Z,101878.25
2022-08-30T02:18:10.721Z,101877.94
2022-08-30T02:20:40.296Z,101873.66
2022-08-30T02:23:08.165Z,101879.66
2022-08-30T02:25:36.260Z,101882.78
2022-08-30T02:28:06.048Z,101873.06
2022-08-30T02:30:34.587Z,101877.94
2022-08-30T02:33:02.648Z,101869.09
2022-08-30T02:35:30.610Z,101869.94
2022-08-30T02:37:58.702Z,101871.81
2022-08-30T02:40:26.738Z,101871.53
2022-08-30T02:42:54.717Z,101867.41
2022-08-30T02:45:24.472Z,101873.97
2022-08-30T02:47:52.561Z,101878.34
2022-08-30T02:50:20.868Z,101875.78
2022-08-30T02:52:48.904Z,101876.84
2022-08-30T02:55:17.694Z,101873.91
2022-08-30T02:57:45.673Z,101874.22
2022-08-30T03:00:17.543Z,101872.66
2022-08-30T03:02:46.840Z,101868.50
2022-08-30T03:05:16.519Z,101867.50
2022-08-30T03:07:45.636Z,101873.63
2022-08-30T03:10:14.537Z,101866.78
2022-08-30T03:12:42.527Z,101866.50
2022-08-30T03:15:12.569Z,101870.34
2022-08-30T03:17:40.627Z,101872.50
2022-08-30T03:20:11.997Z,101867.91
2022-08-30T03:22:40.599Z,101873.75
2022-08-30T03:25:09.604Z,101870.63
2022-08-30T03:27:37.748Z,101869.63
2022-08-30T03:30:07.096Z,101877.19
2022-08-30T03:32:35.075Z,101878.19
2022-08-30T03:35:03.015Z,101873.31
2022-08-30T03:37:32.397Z,101875.34
2022-08-30T03:40:00.454Z,101875.63
2022-08-30T03:42:28.502Z,101876.75
2022-08-30T03:44:56.801Z,101883.03
2022-08-30T03:47:24.705Z,101882.75
2022-08-30T03:49:52.616Z,101889.47
2022-08-30T03:52:20.514Z,101890.41
2022-08-30T03:54:49.832Z,101890.41
2022-08-30T03:57:19.731Z,101895.25
2022-08-30T03:59:48.435Z,101903.50
2022-08-30T04:02:16.422Z,101896.31
2022-08-30T04:04:44.404Z,101902.94
2022-08-30T04:07:12.756Z,101896.16
2022-08-30T04:09:41.005Z,101895.03
2022-08-30T04:12:10.358Z,101899.84
2022-08-30T04:14:38.276Z,101894.16
2022-08-30T04:17:06.211Z,101898.13
2022-08-30T04:19:34.178Z,101894.16
2022-08-30T04:22:02.086Z,101911.66
2022-08-30T04:24:30.014Z,101901.94
2022-08-30T04:26:57.913Z,101911.38
2022-08-30T04:29:27.296Z,101906.66
2022-08-30T04:31:55.248Z,101914.34
2022-08-30T04:34:23.774Z,101905.66
2022-08-30T04:36:51.749Z,101906.63
2022-08-30T04:39:20.308Z,101909.25
2022-08-30T04:41:48.510Z,101916.34
2022-08-30T04:44:19.387Z,101920.66
2022-08-30T04:46:49.388Z,101917.06
2022-08-30T04:49:17.344Z,101920.59
2022-08-30T04:51:45.293Z,101925.50
2022-08-30T04:54:13.442Z,101916.69
2022-08-30T04:56:41.604Z,101913.28
2022-08-30T04:59:09.595Z,101923.63
2022-08-30T05:01:45.300Z,101923.75
2022-08-30T05:04:16.119Z,101926.78
2022-08-30T05:06:44.304Z,101925.03
2022-08-30T05:09:13.035Z,101938.44
2022-08-30T05:11:43.196Z,101925.78
2022-08-30T05:14:11.140Z,101926.22
2022-08-30T05:16:39.154Z,101929.22
2022-08-30T05:19:07.888Z,101932.94
2022-08-30T05:21:37.265Z,101930.25
2022-08-30T05:24:05.318Z,101934.81
2022-08-30T05:26:35.526Z,101938.81
2022-08-30T05:29:03.589Z,101944.25
2022-08-30T05:31:35.011Z,101928.72
2022-08-30T05:34:03.743Z,101940.09
2022-08-30T05:36:33.352Z,101938.84
2022-08-30T05:39:02.814Z,101943.41
2022-08-30T05:41:34.321Z,101941.00
2022-08-30T05:44:06.920Z,101941.41
2022-08-30T05:46:35.593Z,101945.81
2022-08-30T05:49:05.199Z,101941.78
2022-08-30T05:51:35.854Z,101937.53
2022-08-30T05:54:10.689Z,101936.72
2022-08-30T05:56:40.227Z,101943.84
2022-08-30T05:59:09.366Z,101939.31
2022-08-30T06:01:39.784Z,101945.72
2022-08-30T06:04:10.178Z,101945.84
2022-08-30T06:06:40.549Z,101948.84
2022-08-30T06:09:11.861Z,101951.41
2022-08-30T06:11:40.050Z,101940.59
2022-08-30T06:14:08.215Z,101941.88
2022-08-30T06:16:38.752Z,101952.44
2022-08-30T06:19:08.371Z,101938.28
2022-08-30T06:21:37.615Z,101945.81
2022-08-30T06:24:07.952Z,101941.66
2022-08-30T06:26:41.333Z,101952.25
2022-08-30T06:29:10.122Z,101946.09
2022-08-30T06:31:38.449Z,101945.38
2022-08-30T06:34:06.884Z,101948.81
2022-08-30T06:36:34.921Z,101952.13
2022-08-30T06:39:03.681Z,101956.25
2022-08-30T06:41:33.947Z,101953.22
2022-08-30T06:44:05.905Z,101955.50
2022-08-30T06:46:36.740Z,101957.75
2022-08-30T06:49:06.863Z,101960.56
2022-08-30T06:51:37.276Z,101953.59
2022-08-30T06:54:10.796Z,101956.44
2022-08-30T06:56:48.696Z,101968.19
2022-08-30T06:59:27.794Z,101963.44
2022-08-30T07:01:56.336Z,101958.91
2022-08-30T07:04:24.462Z,101960.31
2022-08-30T07:06:53.248Z,101962.22
2022-08-30T07:09:22.992Z,101956.25
2022-08-30T07:11:52.577Z,101963.72
2022-08-30T07:14:20.494Z,101963.16
2022-08-30T07:16:51.072Z,101962.97
2022-08-30T07:19:21.016Z,101962.25
2022-08-30T07:21:50.415Z,101961.50
2022-08-30T07:24:18.913Z,101965.53
2022-08-30T07:26:49.910Z,101966.72
2022-08-30T07:29:19.039Z,101961.88
2022-08-30T07:31:48.053Z,101967.72
2022-08-30T07:34:19.272Z,101967.94
2022-08-30T07:36:48.516Z,101962.25
2022-08-30T07:39:16.447Z,101966.22
2022-08-30T07:41:44.427Z,101972.59
2022-08-30T07:44:13.554Z,101970.72
2022-08-30T07:46:42.629Z,101968.09
2022-08-30T07:49:13.033Z,101969.81
2022-08-30T07:51:43.121Z,101984.69
2022-08-30T07:54:11.013Z,101984.03
2022-08-30T07:56:39.021Z,101989.63
2022-08-30T07:59:06.972Z,101984.81
2022-08-30T08:01:34.923Z,101980.66
2022-08-30T08:04:03.399Z,101988.28
2022-08-30T08:06:35.028Z,101987.09
2022-08-30T08:09:05.131Z,101988.19
2022-08-30T08:11:34.777Z,101992.03
2022-08-30T08:14:03.407Z,101984.34
2022-08-30T08:16:36.076Z,101979.03
2022-08-30T08:19:08.727Z,101983.84
2022-08-30T08:21:38.347Z,101982.91
2022-08-30T08:24:09.054Z,101984.47
2022-08-30T08:26:38.156Z,101985.47
2022-08-30T08:29:10.818Z,101979.78
2022-08-30T08:31:39.313Z,102006.59
2022-08-30T08:34:07.316Z,102002.34
2022-08-30T08:36:36.258Z,101987.81
2022-08-30T08:39:07.765Z,102007.09
2022-08-30T08:41:50.921Z,101998.06
2022-08-30T08:44:43.392Z,102002.41
2022-08-30T08:47:15.092Z,101995.53
2022-08-30T08:49:47.086Z,101994.84
2022-08-30T08:52:40.668Z,102006.59
2022-08-30T08:55:12.994Z,101990.22
2022-08-30T08:57:41.759Z,101996.22
2022-08-30T09:00:12.496Z,101999.34
2022-08-30T09:02:44.541Z,102005.47
2022-08-30T09:05:16.400Z,102001.38
2022-08-30T09:07:50.120Z,102009.41
2022-08-30T09:10:29.950Z,102009.38
2022-08-30T09:13:07.733Z,102005.00
2022-08-30T09:15:41.429Z,102000.50
2022-08-30T09:18:19.260Z,102002.22
2022-08-30T09:20:49.988Z,102014.72
2022-08-30T09:23:28.700Z,102019.13
2022-08-30T09:26:00.779Z,102025.97
2022-08-30T09:28:31.372Z,102025.19
2022-08-30T09:31:03.739Z,102017.16
2022-08-30T09:33:32.205Z,102025.75
2022-08-30T09:36:20.140Z,102009.72
2022-08-30T09:39:00.765Z,102022.41
2022-08-30T09:41:37.637Z,102021.31
2022-08-30T09:44:09.771Z,102015.66
2022-08-30T09:46:48.810Z,102021.84
2022-08-30T09:49:30.940Z,102016.38
2022-08-30T09:52:23.368Z,102008.00
2022-08-30T09:55:04.740Z,102012.13
2022-08-30T09:57:44.849Z,102007.75
2022-08-30T10:00:18.545Z,102007.88
2022-08-30T10:03:04.555Z,102009.84
2022-08-30T10:05:41.683Z,102017.06
2022-08-30T10:08:19.060Z,102013.25
2022-08-30T10:10:53.607Z,102010.19
2022-08-30T10:13:57.456Z,102000.94
2022-08-30T10:16:42.853Z,102005.38
2022-08-30T10:19:29.609Z,102006.91
2022-08-30T10:22:04.285Z,102005.22
2022-08-30T10:24:36.828Z,102002.16
2022-08-30T10:27:09.697Z,102000.28
2022-08-30T10:29:44.300Z,101996.94
2022-08-30T10:32:21.353Z,101996.84
2022-08-30T10:34:55.665Z,101991.72
2022-08-30T10:37:27.238Z,101989.53
2022-08-30T10:40:00.666Z,101992.78
2022-08-30T10:42:39.372Z,101991.16
2022-08-30T10:45:13.518Z,101992.59
2022-08-30T10:47:50.717Z,101978.09
2022-08-30T10:50:25.358Z,101981.69
2022-08-30T10:52:58.167Z,101980.66
2022-08-30T10:55:30.968Z,101981.97
2022-08-30T10:58:01.452Z,101977.59
2022-08-30T11:00:31.549Z,101983.53
2022-08-30T11:03:39.771Z,101978.25
2022-08-30T11:06:17.358Z,101966.81
2022-08-30T11:09:09.713Z,101971.09
2022-08-30T11:11:51.913Z,101974.47
2022-08-30T11:14:21.170Z,101969.19
2022-08-30T11:16:57.744Z,101970.13
2022-08-30T11:19:32.118Z,101964.91
2022-08-30T11:22:13.941Z,101966.13
2022-08-30T11:25:10.017Z,101965.25
2022-08-30T11:27:51.485Z,101961.63
2022-08-30T11:30:51.413Z,101947.06
2022-08-30T11:33:31.773Z,101937.28
2022-08-30T11:36:01.590Z,101941.09
2022-08-30T11:39:01.305Z,101935.28
2022-08-30T11:41:40.835Z,101937.75
2022-08-30T11:44:26.519Z,101940.63
2022-08-30T11:46:56.457Z,101931.84
2022-08-30T11:49:37.533Z,101930.63
2022-08-30T11:52:27.685Z,101930.72
2022-08-30T11:55:12.933Z,101928.66
2022-08-30T11:57:50.029Z,101933.53
2022-08-30T12:00:30.400Z,101922.44
2022-08-30T12:03:02.044Z,101922.41
2022-08-30T12:05:54.129Z,101919.00
2022-08-30T12:08:59.521Z,101928.66
2022-08-30T12:11:56.771Z,101920.09
2022-08-30T12:14:48.780Z,101920.47
2022-08-30T12:17:41.512Z,101910.50
2022-08-30T12:20:27.237Z,101913.66
2022-08-30T12:22:56.714Z,101907.22
2022-08-30T12:25:30.675Z,101903.16
2022-08-30T12:28:14.006Z,101903.41
2022-08-30T12:30:42.762Z,101905.13
2022-08-30T12:33:24.202Z,101908.50
2022-08-30T12:35:59.490Z,101899.47
2022-08-30T12:38:28.347Z,101892.84
2022-08-30T12:41:00.239Z,101899.56
2022-08-30T12:43:40.703Z,101899.78
2022-08-30T12:46:15.317Z,101887.91
2022-08-30T12:48:46.102Z,101886.19
2022-08-30T12:51:29.693Z,101900.34
2022-08-30T12:54:07.123Z,101891.50
2022-08-30T12:56:53.678Z,101899.25
2022-08-30T12:59:47.372Z,101899.94
2022-08-30T13:02:24.043Z,101901.34
2022-08-30T13:04:54.298Z,101899.75
2022-08-30T13:07:28.593Z,101890.47
2022-08-30T13:10:20.507Z,101885.72
2022-08-30T13:13:04.825Z,101889.25
2022-08-30T13:15:35.821Z,101886.09
2022-08-30T13:18:26.687Z,101883.25
2022-08-30T13:21:20.190Z,101880.38
2022-08-30T13:23:48.358Z,101870.97
2022-08-30T13:26:20.425Z,101879.50
2022-08-30T13:28:55.220Z,101878.75
2022-08-30T13:31:23.454Z,101874.28
2022-08-30T13:33:53.203Z,101879.81
2022-08-30T13:36:22.866Z,101874.63
2022-08-30T13:38:51.075Z,101873.34
2022-08-30T13:41:20.316Z,101873.44
2022-08-30T13:46:38.195Z,101870.53
2022-08-30T13:49:43.003Z,101866.75
2022-08-30T13:52:19.082Z,101866.63
2022-08-30T13:54:46.302Z,101854.63
2022-08-30T13:57:53.807Z,101854.72
2022-08-30T14:00:12.937Z,101860.69
2022-08-30T14:02:48.989Z,101864.94
2022-08-30T14:05:46.766Z,101861.66
2022-08-30T14:08:44.355Z,101857.28
2022-08-30T14:10:58.496Z,101861.28
2022-08-30T14:13:29.151Z,101862.25
2022-08-30T14:18:47.207Z,101873.59
2022-08-30T14:21:15.411Z,101862.56
2022-08-30T14:23:43.339Z,101867.47
2022-08-30T14:26:14.866Z,101871.66
2022-08-30T14:28:45.540Z,101870.22
2022-08-30T14:31:14.318Z,101871.75
2022-08-30T14:33:42.677Z,101867.00
2022-08-30T14:36:15.560Z,101882.06
2022-08-30T14:38:43.764Z,101870.19
2022-08-30T14:41:12.061Z,101881.88
2022-08-30T14:43:41.188Z,101875.56
2022-08-30T14:46:10.158Z,101874.81
2022-08-30T14:48:39.559Z,101885.97
2022-08-30T14:51:16.690Z,101883.81
2022-08-30T14:53:45.765Z,101882.56
2022-08-30T14:56:16.547Z,101886.19
2022-08-30T14:58:44.552Z,101886.31
2022-08-30T15:01:13.696Z,101884.97
2022-08-30T15:03:42.658Z,101887.47
2022-08-30T15:06:12.179Z,101886.31
2022-08-30T15:08:41.967Z,101890.00
2022-08-30T15:11:17.719Z,101895.50
2022-08-30T15:13:45.781Z,101879.94
2022-08-30T15:16:16.470Z,101890.63
2022-08-30T15:18:44.526Z,101890.34
2022-08-30T15:21:12.718Z,101888.56
2022-08-30T15:23:44.685Z,101884.03
2022-08-30T15:26:12.562Z,101890.22
2022-08-30T15:28:40.429Z,101882.50
2022-08-30T15:31:09.515Z,101885.91
2022-08-30T15:33:38.085Z,101881.50
2022-08-30T15:36:07.246Z,101889.34
2022-08-30T15:38:35.780Z,101888.16
2022-08-30T15:41:07.884Z,101878.50
2022-08-30T15:43:36.026Z,101884.09
2022-08-30T15:46:17.161Z,101879.88
2022-08-30T15:48:46.028Z,101871.81
2022-08-30T15:51:14.199Z,101876.75
2022-08-30T15:53:42.271Z,101870.81
2022-08-30T15:56:11.705Z,101873.25
2022-08-30T15:58:39.981Z,101865.72
2022-08-30T16:01:08.831Z,101865.84
2022-08-30T16:03:40.369Z,101867.16
2022-08-30T16:06:13.077Z,101876.47
2022-08-30T16:08:41.728Z,101863.88
2022-08-30T16:11:13.127Z,101864.75
2022-08-30T16:13:42.283Z,101863.09
2022-08-30T16:16:10.995Z,101859.22
2022-08-30T16:18:39.784Z,101863.47
2022-08-30T16:21:09.538Z,101853.22
2022-08-30T16:23:39.776Z,101861.31
2022-08-30T16:26:17.340Z,101855.50
2022-08-30T16:28:45.604Z,101859.84
2022-08-30T16:31:14.606Z,101861.50
2022-08-30T16:33:44.797Z,101858.81
2022-08-30T16:36:13.280Z,101862.13
2022-08-30T16:38:41.632Z,101857.00
2022-08-30T16:41:15.626Z,101858.53
2022-08-30T16:43:47.193Z,101858.38
2022-08-30T16:46:22.819Z,101861.25
2022-08-30T16:48:57.231Z,101849.38
2022-08-30T16:51:26.753Z,101863.00
2022-08-30T16:53:55.827Z,101857.88
2022-08-30T16:56:27.203Z,101846.81
2022-08-30T16:59:01.204Z,101856.53
2022-08-30T17:01:31.459Z,101855.00
2022-08-30T17:04:00.383Z,101852.78
2022-08-30T17:06:28.542Z,101851.56
2022-08-30T17:08:57.156Z,101867.03
2022-08-30T17:11:27.047Z,101867.56
2022-08-30T17:13:55.645Z,101857.19
2022-08-30T17:16:27.919Z,101868.94
2022-08-30T17:18:59.909Z,101867.53
2022-08-30T17:21:29.391Z,101865.66
2022-08-30T17:24:01.820Z,101869.97
2022-08-30T17:26:33.581Z,101869.81
2022-08-30T17:29:01.910Z,101875.94
2022-08-30T17:31:31.398Z,101883.25
2022-08-30T17:34:03.461Z,101875.75
2022-08-30T17:36:32.499Z,101889.88
2022-08-30T17:39:00.704Z,101887.88
2022-08-30T17:41:28.766Z,101891.63
2022-08-30T17:43:58.146Z,101889.34
2022-08-30T17:46:26.150Z,101900.53
2022-08-30T17:49:01.311Z,101899.31
2022-08-30T17:51:30.945Z,101903.09
2022-08-30T17:53:59.129Z,101910.84
2022-08-30T17:56:34.169Z,101908.69
2022-08-30T17:59:07.925Z,101910.16
2022-08-30T18:01:38.184Z,101911.84
2022-08-30T18:04:06.826Z,101911.28
2022-08-30T18:06:34.954Z,101909.44
2022-08-30T18:09:03.394Z,101918.47
2022-08-30T18:11:31.465Z,101912.38
2022-08-30T18:13:59.512Z,101925.78
2022-08-30T18:16:29.019Z,101926.22
2022-08-30T18:18:57.659Z,101930.22
2022-08-30T18:21:25.982Z,101936.78
2022-08-30T18:23:56.519Z,101946.28
2022-08-30T18:26:25.326Z,101942.31
2022-08-30T18:28:53.440Z,101945.63
2022-08-30T18:31:22.023Z,101949.66
2022-08-30T18:33:51.441Z,101947.06
2022-08-30T18:36:20.187Z,101950.19
2022-08-30T18:38:48.212Z,101952.13
2022-08-30T18:41:16.289Z,101961.94
2022-08-30T18:43:45.251Z,101954.78
2022-08-30T18:46:17.059Z,101947.06
2022-08-30T18:48:46.957Z,101965.66
2022-08-30T18:51:19.657Z,101957.03
2022-08-30T18:53:49.514Z,101960.22
2022-08-30T18:56:18.021Z,101959.97
2022-08-30T18:58:47.512Z,101968.63
2022-08-30T19:01:20.710Z,101958.34
2022-08-30T19:03:50.737Z,101952.47
2022-08-30T19:06:21.947Z,101955.19
2022-08-30T19:08:51.017Z,101953.00
2022-08-30T19:11:19.111Z,101950.59
2022-08-30T19:13:47.065Z,101953.00
2022-08-30T19:16:15.028Z,101951.69
2022-08-30T19:18:43.194Z,101944.78
2022-08-30T19:21:14.215Z,101946.03
2022-08-30T19:23:43.591Z,101944.09
2022-08-30T19:26:11.533Z,101945.56
2022-08-30T19:28:39.783Z,101948.50
2022-08-30T19:31:08.170Z,101955.75
2022-08-30T19:33:36.173Z,101955.19
2022-08-30T19:36:06.852Z,101957.50
2022-08-30T19:38:36.339Z,101953.66
2022-08-30T19:41:05.822Z,101957.50
2022-08-30T19:43:33.741Z,101957.50
2022-08-30T19:46:02.052Z,101962.66
2022-08-30T19:48:32.445Z,101962.03
2022-08-30T19:51:06.559Z,101968.94
2022-08-30T19:53:35.223Z,101967.59
2022-08-30T19:56:03.466Z,101973.22
2022-08-30T19:58:33.211Z,101972.16
2022-08-30T20:01:12.643Z,101970.31
2022-08-30T20:03:49.293Z,101973.38
2022-08-30T20:06:20.114Z,101980.84
2022-08-30T20:08:48.317Z,101972.56
2022-08-30T20:11:19.935Z,101971.78
2022-08-30T20:13:49.987Z,101971.72
2022-08-30T20:16:18.275Z,101976.19
2022-08-30T20:18:48.875Z,101971.72
2022-08-30T20:21:17.297Z,101988.53
2022-08-30T20:23:45.427Z,101980.53
2022-08-30T20:26:14.126Z,101984.81
2022-08-30T20:28:42.717Z,101987.28
2022-08-30T20:31:13.070Z,101991.06
2022-08-30T20:33:41.352Z,101997.53
2022-08-30T20:36:11.611Z,101997.06
2022-08-30T20:38:40.510Z,101993.28
2022-08-30T20:41:11.257Z,101996.78
2022-08-30T20:43:39.871Z,101996.00
2022-08-30T20:46:09.522Z,101994.44
2022-08-30T20:48:39.856Z,101991.44
2022-08-30T20:51:10.607Z,101996.88
2022-08-30T20:53:39.009Z,101991.03
2022-08-30T20:56:13.002Z,101990.31
2022-08-30T20:58:41.477Z,101994.09
2022-08-30T21:01:11.635Z,102002.47
2022-08-30T21:03:42.010Z,101998.16
2022-08-30T21:06:11.638Z,101994.91
2022-08-30T21:08:40.070Z,101983.22
2022-08-30T21:11:08.272Z,101996.31
2022-08-30T21:13:36.492Z,101997.06
2022-08-30T21:16:05.588Z,101998.78
2022-08-30T21:18:35.497Z,102007.22
2022-08-30T21:21:10.832Z,102003.34
2022-08-30T21:23:38.779Z,102014.66
2022-08-30T21:26:07.803Z,102005.06
2022-08-30T21:28:35.998Z,102013.50
2022-08-30T21:31:05.755Z,102006.50
2022-08-30T21:33:33.679Z,102013.66
2022-08-30T21:36:19.282Z,102017.22
2022-08-30T21:38:48.541Z,102017.19
2022-08-30T21:41:16.541Z,102010.09
2022-08-30T21:43:44.461Z,102018.63
2022-08-30T21:46:13.326Z,102013.78
2022-08-30T21:48:41.284Z,102008.06
2022-08-30T21:51:10.759Z,102009.22
2022-08-30T21:53:38.768Z,102013.06
2022-08-30T21:56:13.477Z,102008.06
2022-08-30T21:58:45.580Z,102003.34
2022-08-30T22:01:17.759Z,102012.22
2022-08-30T22:03:46.657Z,102011.75
2022-08-30T22:06:15.878Z,102020.84
2022-08-30T22:08:46.021Z,102016.31
2022-08-30T22:11:17.656Z,102005.50
2022-08-30T22:13:48.060Z,102015.19
2022-08-30T22:16:17.689Z,102010.78
2022-08-30T22:18:45.935Z,102022.91
2022-08-30T22:21:16.307Z,102021.25
2022-08-30T22:23:45.034Z,102030.81
2022-08-30T22:26:15.672Z,102023.09
2022-08-30T22:28:43.839Z,102020.34
2022-08-30T22:31:13.933Z,102019.63
2022-08-30T22:33:42.953Z,102022.16
2022-08-30T22:36:13.645Z,102021.91
2022-08-30T22:38:42.167Z,102032.84
2022-08-30T22:41:11.512Z,102032.09
2022-08-30T22:43:41.275Z,102027.03
2022-08-30T22:46:09.318Z,102031.66
2022-08-30T22:48:38.497Z,102035.09
2022-08-30T22:51:07.248Z,102042.00
2022-08-30T22:53:35.519Z,102045.03
2022-08-30T22:56:09.721Z,102043.50
2022-08-30T22:58:37.927Z,102032.78
2022-08-30T23:01:07.823Z,102033.31
2022-08-30T23:03:36.438Z,102040.47
2022-08-30T23:06:04.905Z,102043.78
2022-08-30T23:08:32.808Z,102046.59
2022-08-30T23:11:00.810Z,102049.13
2022-08-30T23:13:28.969Z,102047.25
2022-08-30T23:15:57.023Z,102046.97
2022-08-30T23:18:26.549Z,102041.09
2022-08-30T23:20:54.784Z,102041.38
2022-08-30T23:23:40.034Z,102044.69
2022-08-30T23:26:25.609Z,102047.72
2022-08-30T23:29:10.713Z,102057.88
2022-08-30T23:31:56.050Z,102043.78
2022-08-30T23:34:43.549Z,102048.56
2022-08-30T23:37:29.151Z,102059.66
2022-08-30T23:40:14.582Z,102055.38
2022-08-30T23:43:00.231Z,102051.28
2022-08-30T23:45:46.141Z,102045.72
2022-08-30T23:48:32.150Z,102039.69
2022-08-30T23:51:21.888Z,102042.28
2022-08-30T23:54:07.499Z,102045.78
2022-08-30T23:56:53.158Z,102041.50
2022-08-30T23:59:38.422Z,102041.16
